This is the latest recevied weather packets stored in our database for station/object SP9MLI-1. If no packets are shown the sender has not sent any weather packets the latest 10 day(s).
| Time | Temp. | Humidity | Pressure | Rain* | Wind** | Luminosity | Snow |
|---|---|---|---|---|---|---|---|
| 1777491493 | 2.78° C | 66% | 1027.9 hPa | 0 mm | - | - | - |
| 1777490593 | 2.78° C | 66% | 1027.9 hPa | 0 mm | - | - | - |
| 1777489693 | 3.33° C | 65% | 1028.2 hPa | 0 mm | - | - | - |
| 1777487892 | 4.44° C | 61% | 1028.2 hPa | 0 mm | - | - | - |
| 1777486093 | 5.56° C | 57% | 1028.6 hPa | 0 mm | - | - | - |
| 1777484293 | 6.11° C | 55% | 1028.6 hPa | 0 mm | - | - | - |
| 1777483393 | 6.67° C | 56% | 1028.9 hPa | 0 mm | - | - | - |
| 1777482493 | 7.22° C | 53% | 1028.6 hPa | 0 mm | - | - | - |
| 1777480693 | 7.78° C | 53% | 1028.6 hPa | 0 mm | - | - | - |
| 1777479796 | 8.33° C | 55% | 1028.9 hPa | 0 mm | - | - | - |
| 1777477093 | 8.33° C | 55% | 1029.2 hPa | 0 mm | - | - | - |
| 1777476192 | 8.89° C | 54% | 1030.3 hPa | 0 mm | - | - | - |
| 1777475292 | 8.89° C | 54% | 1030.3 hPa | 0 mm | - | - | - |
| 1777473496 | 8.89° C | 54% | 1030.3 hPa | 0 mm | - | - | - |
| 1777472592 | 8.89° C | 56% | 1030.3 hPa | 0 mm | - | - | - |
| 1777471692 | 9.44° C | 55% | 1030.6 hPa | 0 mm | - | - | - |
| 1777470792 | 9.44° C | 57% | 1030.9 hPa | 0 mm | - | - | - |
| 1777469892 | 10° C | 54% | 1031.3 hPa | 0 mm | - | - | - |
| 1777468992 | 10° C | 53% | 1031.6 hPa | 0 mm | - | - | - |
| 1777468093 | 10° C | 53% | 1031.9 hPa | 0 mm | - | - | - |
| 1777467192 | 10.56° C | 54% | 1031.9 hPa | 0 mm | - | - | - |
| 1777466295 | 10.56° C | 54% | 1031.9 hPa | 0 mm | - | - | - |
| 1777465394 | 10.56° C | 53% | 1031.6 hPa | 0 mm | - | - | - |
| 1777464493 | 10.56° C | 53% | 1031.6 hPa | 0 mm | - | - | - |
| 1777462693 | 10° C | 54% | 1031.3 hPa | 0 mm | - | - | - |
* Rain latest hour (hover to see other rain measurements)
** Current wind speed in m/s (hover to see current wind gust speed)